Time;durP1;ratioP1;P1;durP2;ratioP2;P2;SDS_P1;SDS_P2;PMS_P1;PMS_P2;Temp;Humidity;BMP_temperature;BMP_pressure;BME280_temperature;BME280_humidity;BME280_pressure;Samples;Min_cycle;Max_cycle;Signal;HPM_P1;HPM_P2
2022/11/17 00:02:13;;;;;;;12.52;10.43;;;;;;;;;;10275987;28;20549;-60
2022/11/17 00:07:13;;;;;;;14.32;11.95;;;;;;;;;;10278614;28;20064;-60
2022/11/17 00:17:30;;;;;;;14.32;11.15;;;;;;;;;;10274636;28;20073;-60
2022/11/17 00:22:31;;;;;;;12.60;11.30;;;;;;;;;;10274026;28;20069;-59
2022/11/17 00:27:30;;;;;;;12.57;11.27;;;;;;;;;;10273292;28;20076;-60
2022/11/17 00:42:57;;;;;;;13.65;11.57;;;;;;;;;;10266987;28;20522;-61
2022/11/17 00:47:55;;;;;;;13.32;11.30;;;;;;;;;;10276857;28;20071;-61
2022/11/17 00:52:55;;;;;;;15.45;11.90;;;;;;;;;;10276181;28;20071;-60
2022/11/17 00:57:53;;;;;;;12.82;11.02;;;;;;;;;;10268026;28;20061;-61
2022/11/17 01:02:51;;;;;;;12.13;10.70;;;;;;;;;;10274346;28;20068;-62
2022/11/17 01:07:50;;;;;;;13.82;10.52;;;;;;;;;;10270700;28;20064;-60
2022/11/17 01:12:49;;;;;;;11.70;10.50;;;;;;;;;;10276431;28;20068;-60
2022/11/17 01:17:47;;;;;;;12.05;10.00;;;;;;;;;;10277213;28;20501;-60
2022/11/17 01:22:46;;;;;;;13.30;10.15;;;;;;;;;;10277079;28;20513;-61
2022/11/17 01:27:44;;;;;;;12.25;10.35;;;;;;;;;;10270671;28;20072;-60
2022/11/17 01:32:44;;;;;;;11.02;9.82;;;;;;;;;;10269189;28;20089;-60
2022/11/17 01:37:42;;;;;;;11.90;9.23;;;;;;;;;;10268668;28;20099;-60
2022/11/17 01:42:40;;;;;;;11.95;10.25;;;;;;;;;;10269874;28;20069;-62
2022/11/17 01:47:42;;;;;;;13.88;10.48;;;;;;;;;;10269651;28;20080;-61
2022/11/17 01:52:42;;;;;;;11.45;10.27;;;;;;;;;;10269895;28;20494;-61
2022/11/17 01:57:43;;;;;;;13.20;10.90;;;;;;;;;;10273350;28;20070;-60
2022/11/17 02:02:43;;;;;;;11.63;10.43;;;;;;;;;;10270776;28;20084;-59
2022/11/17 02:07:43;;;;;;;11.95;9.32;;;;;;;;;;10271022;28;20116;-61
2022/11/17 02:12:41;;;;;;;10.55;9.45;;;;;;;;;;10268435;28;20100;-61
2022/11/17 02:17:41;;;;;;;10.75;9.63;;;;;;;;;;10267340;28;20068;-60
2022/11/17 02:22:50;;;;;;;10.93;9.60;;;;;;;;;;10266100;28;20084;-60
2022/11/17 02:28:03;;;;;;;11.02;8.68;;;;;;;;;;10262040;28;20072;-60
2022/11/17 02:33:03;;;;;;;12.07;8.98;;;;;;;;;;10264693;28;20073;-60
2022/11/17 02:38:03;;;;;;;10.10;9.07;;;;;;;;;;10269722;28;20045;-60
2022/11/17 02:48:25;;;;;;;12.85;9.65;;;;;;;;;;10269553;28;20461;-60
2022/11/17 02:53:24;;;;;;;10.25;8.10;;;;;;;;;;10269218;28;20065;-60
2022/11/17 02:58:24;;;;;;;12.18;9.63;;;;;;;;;;10268505;28;20064;-60
2022/11/17 03:03:28;;;;;;;10.55;8.48;;;;;;;;;;10264960;28;20068;-61
2022/11/17 03:08:30;;;;;;;9.82;8.57;;;;;;;;;;10268565;28;20075;-61
2022/11/17 03:13:36;;;;;;;9.52;7.78;;;;;;;;;;10252819;28;20069;-62
2022/11/17 03:18:38;;;;;;;9.90;8.82;;;;;;;;;;10237511;28;20050;-61
2022/11/17 03:23:38;;;;;;;10.90;8.00;;;;;;;;;;10247664;28;20077;-61
2022/11/17 03:28:38;;;;;;;9.05;8.02;;;;;;;;;;10269580;28;20079;-61
2022/11/17 03:33:37;;;;;;;13.65;8.63;;;;;;;;;;10269990;28;20077;-60
2022/11/17 03:38:37;;;;;;;9.55;8.38;;;;;;;;;;10269143;28;20729;-62
2022/11/17 03:43:36;;;;;;;10.77;8.55;;;;;;;;;;10269354;28;20134;-60
2022/11/17 03:48:38;;;;;;;44.53;34.53;;;;;;;;;;10269381;28;20349;-60
2022/11/17 03:53:36;;;;;;;52.90;41.38;;;;;;;;;;10268369;28;20076;-61
2022/11/17 03:58:37;;;;;;;39.40;32.30;;;;;;;;;;10269458;28;20078;-61
2022/11/17 04:03:36;;;;;;;34.40;28.80;;;;;;;;;;10263507;28;20095;-60
2022/11/17 04:08:35;;;;;;;21.98;18.42;;;;;;;;;;10268071;28;20069;-60
2022/11/17 04:18:50;;;;;;;13.15;9.77;;;;;;;;;;10273454;28;20075;-60
2022/11/17 04:23:56;;;;;;;15.20;11.75;;;;;;;;;;10273781;28;20064;-60
2022/11/17 04:28:55;;;;;;;11.77;9.63;;;;;;;;;;10274582;28;20757;-60
2022/11/17 04:33:55;;;;;;;10.30;9.25;;;;;;;;;;10273444;28;20103;-60
2022/11/17 04:38:54;;;;;;;11.82;9.05;;;;;;;;;;10274733;28;20049;-60
2022/11/17 04:43:53;;;;;;;18.80;14.77;;;;;;;;;;10275400;28;20087;-60
2022/11/17 04:48:52;;;;;;;13.32;12.02;;;;;;;;;;10274779;28;20159;-60
2022/11/17 04:53:52;;;;;;;10.23;8.75;;;;;;;;;;10273771;28;20080;-60
2022/11/17 04:58:50;;;;;;;12.93;8.90;;;;;;;;;;10269998;28;20080;-60
2022/11/17 05:03:49;;;;;;;9.23;8.20;;;;;;;;;;10273020;28;20483;-60
2022/11/17 05:08:47;;;;;;;9.65;8.65;;;;;;;;;;10269512;28;20041;-60
2022/11/17 05:13:47;;;;;;;11.73;8.70;;;;;;;;;;10273289;28;20095;-61
2022/11/17 05:18:46;;;;;;;10.20;6.80;;;;;;;;;;10275863;28;20041;-58
2022/11/17 05:23:56;;;;;;;11.73;8.43;;;;;;;;;;10263976;28;20648;-59
2022/11/17 05:28:56;;;;;;;8.63;7.68;;;;;;;;;;10273915;28;20502;-60
2022/11/17 05:33:55;;;;;;;9.13;7.55;;;;;;;;;;10272325;28;20076;-59
2022/11/17 05:38:54;;;;;;;10.65;7.85;;;;;;;;;;10269675;28;20077;-59
2022/11/17 05:43:52;;;;;;;9.80;7.45;;;;;;;;;;10269800;28;20103;-60
2022/11/17 05:48:52;;;;;;;11.02;7.03;;;;;;;;;;10271006;28;20065;-59
2022/11/17 05:53:50;;;;;;;8.90;7.28;;;;;;;;;;10263226;28;20103;-60
2022/11/17 05:58:50;;;;;;;8.57;7.05;;;;;;;;;;10274417;28;20064;-60
2022/11/17 06:03:52;;;;;;;8.90;7.53;;;;;;;;;;10272921;28;20083;-61
2022/11/17 06:08:52;;;;;;;8.05;7.25;;;;;;;;;;10268549;28;20501;-60
2022/11/17 06:13:50;;;;;;;7.85;7.10;;;;;;;;;;10270394;28;20064;-60
2022/11/17 06:18:51;;;;;;;9.05;8.10;;;;;;;;;;10267060;28;20069;-60
2022/11/17 06:23:50;;;;;;;11.63;8.60;;;;;;;;;;10255529;28;20068;-60
2022/11/17 06:28:51;;;;;;;20.35;18.10;;;;;;;;;;10264211;28;20068;-60
2022/11/17 06:33:49;;;;;;;31.33;22.38;;;;;;;;;;10269256;28;20479;-60
2022/11/17 06:38:47;;;;;;;10.95;9.70;;;;;;;;;;10272493;28;20069;-60
2022/11/17 06:43:45;;;;;;;13.40;10.93;;;;;;;;;;10271401;28;20574;-61
2022/11/17 06:48:45;;;;;;;52.47;32.10;;;;;;;;;;10265166;28;20518;-60
2022/11/17 06:53:43;;;;;;;10.95;9.80;;;;;;;;;;10269540;28;20072;-59
2022/11/17 06:58:42;;;;;;;26.55;16.77;;;;;;;;;;10267677;28;20102;-58
2022/11/17 07:03:41;;;;;;;12.30;9.00;;;;;;;;;;10261107;28;20077;-58
2022/11/17 07:08:41;;;;;;;23.95;17.77;;;;;;;;;;10263940;28;20087;-59
2022/11/17 07:13:40;;;;;;;13.23;11.75;;;;;;;;;;10262686;28;20115;-59
2022/11/17 07:18:40;;;;;;;10.18;8.48;;;;;;;;;;10256982;28;20467;-59
2022/11/17 07:23:39;;;;;;;13.85;11.25;;;;;;;;;;10251911;28;20073;-59
2022/11/17 07:28:39;;;;;;;29.52;21.58;;;;;;;;;;10256837;28;20088;-61
2022/11/17 07:33:37;;;;;;;16.02;11.90;;;;;;;;;;10256426;28;20073;-61
2022/11/17 07:38:36;;;;;;;30.83;20.02;;;;;;;;;;10257748;28;20529;-59
2022/11/17 14:05:13;;;;;;;15.98;14.27;;;;;;;;;;10239198;28;20081;-61
2022/11/17 14:10:15;;;;;;;10.88;9.93;;;;;;;;;;10235592;28;20136;-61
2022/11/17 14:15:14;;;;;;;11.93;10.93;;;;;;;;;;10235156;28;20077;-60
2022/11/17 14:20:19;;;;;;;12.02;10.93;;;;;;;;;;10245359;28;20447;-61
2022/11/17 14:25:19;;;;;;;20.63;17.77;;;;;;;;;;10269400;28;20071;-61
2022/11/17 14:30:17;;;;;;;15.45;13.95;;;;;;;;;;10269762;28;20453;-60
2022/11/17 14:35:16;;;;;;;17.63;15.82;;;;;;;;;;10267121;28;20080;-61
2022/11/17 14:40:16;;;;;;;15.13;13.68;;;;;;;;;;10265704;28;20137;-61
2022/11/17 14:45:16;;;;;;;12.45;11.20;;;;;;;;;;10248224;28;20056;-62
2022/11/17 14:50:15;;;;;;;16.30;14.70;;;;;;;;;;10233889;28;20399;-62
2022/11/17 14:55:14;;;;;;;43.70;30.80;;;;;;;;;;10257439;28;20069;-60
2022/11/17 15:00:13;;;;;;;23.30;20.67;;;;;;;;;;10268785;28;20041;-61
2022/11/17 15:05:18;;;;;;;21.55;19.55;;;;;;;;;;10268594;28;20069;-60
2022/11/17 15:10:17;;;;;;;16.65;15.15;;;;;;;;;;10268164;28;20080;-61
2022/11/17 15:15:16;;;;;;;15.32;13.77;;;;;;;;;;10268058;28;20103;-62
2022/11/17 15:20:14;;;;;;;14.60;13.25;;;;;;;;;;10268492;28;20079;-62
2022/11/17 15:25:14;;;;;;;71.18;54.45;;;;;;;;;;10267935;28;20072;-60
2022/11/17 15:30:13;;;;;;;113.88;72.93;;;;;;;;;;10267545;28;20060;-62
2022/11/17 15:35:11;;;;;;;61.83;45.70;;;;;;;;;;10266992;28;20095;-59
2022/11/17 15:40:10;;;;;;;30.58;25.75;;;;;;;;;;10254653;28;20619;-60
2022/11/17 15:45:17;;;;;;;56.40;41.60;;;;;;;;;;10257906;28;20069;-61
2022/11/17 15:50:16;;;;;;;22.05;19.70;;;;;;;;;;10264569;28;20095;-60
2022/11/17 15:55:15;;;;;;;25.98;23.27;;;;;;;;;;10253903;28;20077;-62
2022/11/17 16:00:14;;;;;;;39.53;30.75;;;;;;;;;;10265703;28;20076;-59
2022/11/17 16:05:14;;;;;;;21.70;18.48;;;;;;;;;;10271255;28;20514;-60
2022/11/17 16:10:12;;;;;;;16.33;14.70;;;;;;;;;;10272674;28;20061;-60
2022/11/17 16:15:11;;;;;;;16.98;15.38;;;;;;;;;;10275951;28;20064;-62
2022/11/17 16:20:10;;;;;;;33.15;25.42;;;;;;;;;;10267634;28;20085;-61
2022/11/17 16:25:10;;;;;;;20.38;18.38;;;;;;;;;;10275706;28;20091;-61
2022/11/17 16:30:08;;;;;;;22.02;16.00;;;;;;;;;;10276093;28;20049;-60
2022/11/17 16:35:07;;;;;;;18.27;15.30;;;;;;;;;;10275053;28;20525;-60
2022/11/17 16:40:06;;;;;;;18.60;16.67;;;;;;;;;;10269885;28;20068;-60
2022/11/17 16:45:06;;;;;;;14.93;12.35;;;;;;;;;;10268015;28;20079;-60
2022/11/17 16:50:05;;;;;;;21.58;19.58;;;;;;;;;;10277281;28;20056;-60
2022/11/17 16:55:03;;;;;;;17.50;15.30;;;;;;;;;;10274107;28;20514;-61
2022/11/17 17:00:02;;;;;;;33.75;30.35;;;;;;;;;;10270523;28;20079;-61
2022/11/17 17:05:02;;;;;;;20.45;18.38;;;;;;;;;;10272804;28;20084;-58
2022/11/17 17:10:00;;;;;;;26.33;23.35;;;;;;;;;;10271555;28;20884;-61
2022/11/17 17:14:59;;;;;;;29.52;26.05;;;;;;;;;;10270309;28;20077;-60
2022/11/17 17:19:57;;;;;;;24.13;21.73;;;;;;;;;;10272790;28;20517;-60
2022/11/17 17:24:57;;;;;;;18.25;16.45;;;;;;;;;;10270969;28;20084;-61
2022/11/17 17:29:55;;;;;;;38.10;29.23;;;;;;;;;;10275567;28;20055;-61
2022/11/17 17:34:54;;;;;;;18.00;16.10;;;;;;;;;;10265538;28;20080;-61
2022/11/17 17:39:52;;;;;;;22.58;18.70;;;;;;;;;;10267927;28;20489;-61
2022/11/17 17:44:51;;;;;;;18.92;16.92;;;;;;;;;;10269092;28;20467;-61
2022/11/17 17:49:50;;;;;;;28.92;22.85;;;;;;;;;;10268515;28;20084;-61
2022/11/17 17:54:48;;;;;;;17.50;13.27;;;;;;;;;;10267709;28;20525;-60
2022/11/17 17:59:46;;;;;;;18.75;16.45;;;;;;;;;;10262099;28;20080;-61
2022/11/17 18:04:46;;;;;;;15.13;12.95;;;;;;;;;;10267455;28;20096;-61
2022/11/17 18:09:44;;;;;;;14.38;12.95;;;;;;;;;;10271093;28;20068;-60
2022/11/17 18:14:43;;;;;;;19.13;15.82;;;;;;;;;;10266144;28;20076;-60
2022/11/17 18:19:41;;;;;;;16.17;14.55;;;;;;;;;;10273922;28;20607;-61
2022/11/17 18:24:41;;;;;;;14.50;12.98;;;;;;;;;;10265121;28;20061;-62
2022/11/17 18:29:39;;;;;;;15.82;14.25;;;;;;;;;;10269267;28;20502;-60
2022/11/17 18:34:37;;;;;;;12.88;11.65;;;;;;;;;;10271333;28;20068;-60
2022/11/17 18:39:37;;;;;;;14.35;12.85;;;;;;;;;;10270669;28;20061;-60
2022/11/17 18:44:36;;;;;;;15.23;13.63;;;;;;;;;;10266718;28;20704;-60
2022/11/17 18:49:34;;;;;;;29.13;23.15;;;;;;;;;;10272415;28;20530;-61
2022/11/17 18:54:33;;;;;;;13.52;12.23;;;;;;;;;;10256168;28;20064;-61
2022/11/17 18:59:31;;;;;;;13.10;11.65;;;;;;;;;;10272404;28;20072;-61
2022/11/17 19:04:31;;;;;;;12.68;11.48;;;;;;;;;;10268249;28;20069;-60
2022/11/17 19:09:29;;;;;;;12.68;10.90;;;;;;;;;;10269523;28;20064;-59
2022/11/17 19:14:27;;;;;;;17.05;13.80;;;;;;;;;;10269319;28;20068;-60
2022/11/17 19:19:26;;;;;;;19.45;15.40;;;;;;;;;;10269291;28;20065;-60
2022/11/17 19:24:26;;;;;;;13.35;11.95;;;;;;;;;;10265849;28;20057;-60
2022/11/17 19:29:24;;;;;;;15.70;13.32;;;;;;;;;;10261787;28;20069;-60
2022/11/17 19:34:22;;;;;;;12.18;10.98;;;;;;;;;;10268729;28;20096;-60
2022/11/17 19:39:20;;;;;;;17.50;15.80;;;;;;;;;;10276326;28;20068;-60
2022/11/17 19:44:20;;;;;;;12.98;11.77;;;;;;;;;;10277495;28;20475;-60
2022/11/17 19:49:18;;;;;;;14.55;11.48;;;;;;;;;;10276212;28;20041;-60
2022/11/17 19:54:16;;;;;;;15.20;11.65;;;;;;;;;;10279348;28;20529;-60
2022/11/17 19:59:15;;;;;;;69.75;42.15;;;;;;;;;;10279726;28;20076;-61
2022/11/17 20:04:15;;;;;;;29.42;20.33;;;;;;;;;;10276168;28;20069;-61
2022/11/17 20:09:14;;;;;;;13.25;11.85;;;;;;;;;;10276030;28;20079;-60
2022/11/17 20:14:14;;;;;;;16.35;14.10;;;;;;;;;;10276054;28;20091;-60
2022/11/17 20:19:12;;;;;;;11.50;9.73;;;;;;;;;;10275408;28;20147;-60
2022/11/17 20:24:12;;;;;;;18.83;13.25;;;;;;;;;;10276143;28;20084;-60
2022/11/17 20:29:10;;;;;;;16.00;14.32;;;;;;;;;;10274857;28;20049;-59
2022/11/17 20:34:11;;;;;;;11.20;9.90;;;;;;;;;;10275330;28;20041;-60
2022/11/17 20:39:10;;;;;;;12.13;10.82;;;;;;;;;;10272631;28;20069;-60
2022/11/17 20:44:22;;;;;;;12.10;10.88;;;;;;;;;;10272289;28;20072;-61
2022/11/17 20:49:21;;;;;;;13.15;11.32;;;;;;;;;;10277512;28;20056;-61
2022/11/17 20:54:19;;;;;;;11.15;9.05;;;;;;;;;;10277456;28;20064;-59
2022/11/17 20:59:19;;;;;;;19.33;14.38;;;;;;;;;;10271708;28;20079;-61
2022/11/17 21:04:17;;;;;;;12.70;11.40;;;;;;;;;;10268941;28;20166;-61
2022/11/17 21:09:16;;;;;;;14.35;11.85;;;;;;;;;;10280334;28;20078;-61
2022/11/17 21:14:15;;;;;;;9.20;8.30;;;;;;;;;;10277053;28;20063;-61
2022/11/17 21:19:15;;;;;;;13.20;10.00;;;;;;;;;;10274212;28;20072;-61
2022/11/17 21:24:14;;;;;;;10.18;7.65;;;;;;;;;;10273478;28;20037;-60
2022/11/17 21:29:12;;;;;;;29.88;16.20;;;;;;;;;;10272765;28;20073;-60
2022/11/17 21:34:13;;;;;;;12.60;9.80;;;;;;;;;;10273157;28;20104;-60
2022/11/17 21:39:16;;;;;;;15.18;11.52;;;;;;;;;;10270335;28;20495;-61
2022/11/17 21:44:15;;;;;;;23.40;15.55;;;;;;;;;;10272599;28;20037;-60
2022/11/17 21:49:14;;;;;;;30.02;19.25;;;;;;;;;;10272843;28;20036;-61
2022/11/17 21:54:14;;;;;;;13.80;10.93;;;;;;;;;;10272335;28;20033;-61
2022/11/17 21:59:13;;;;;;;22.20;14.43;;;;;;;;;;10272218;28;20081;-61
2022/11/17 22:04:12;;;;;;;12.13;10.27;;;;;;;;;;10271292;28;20080;-59
2022/11/17 22:09:10;;;;;;;11.27;10.07;;;;;;;;;;10272274;28;20151;-60
2022/11/17 22:14:11;;;;;;;12.38;10.48;;;;;;;;;;10268149;28;20073;-59
2022/11/17 22:19:10;;;;;;;11.07;9.75;;;;;;;;;;10268832;28;20431;-60
2022/11/17 22:24:09;;;;;;;12.18;10.93;;;;;;;;;;10269156;28;20041;-59
2022/11/17 22:29:09;;;;;;;10.07;9.00;;;;;;;;;;10269282;28;20095;-60
2022/11/17 22:34:09;;;;;;;11.65;10.13;;;;;;;;;;10251935;28;20080;-60
2022/11/17 22:39:08;;;;;;;23.33;15.45;;;;;;;;;;10236521;28;20065;-60
2022/11/17 22:44:06;;;;;;;14.80;11.30;;;;;;;;;;10252557;28;20044;-60
2022/11/17 22:49:04;;;;;;;12.75;10.52;;;;;;;;;;10271547;28;20083;-59
2022/11/17 22:54:04;;;;;;;13.02;10.48;;;;;;;;;;10270680;28;20080;-60
2022/11/17 22:59:03;;;;;;;11.73;10.52;;;;;;;;;;10269025;28;20099;-60
2022/11/17 23:04:01;;;;;;;10.52;9.43;;;;;;;;;;10269683;28;20080;-60
2022/11/17 23:08:59;;;;;;;11.05;9.93;;;;;;;;;;10271088;28;20069;-61
2022/11/17 23:13:59;;;;;;;13.77;11.60;;;;;;;;;;10269463;28;20068;-60
2022/11/17 23:18:57;;;;;;;10.30;9.30;;;;;;;;;;10270646;28;20083;-61
2022/11/17 23:23:56;;;;;;;10.10;9.10;;;;;;;;;;10270179;28;20049;-61
2022/11/17 23:28:54;;;;;;;12.45;10.77;;;;;;;;;;10270109;28;20445;-61
2022/11/17 23:33:53;;;;;;;10.77;9.77;;;;;;;;;;10271982;28;20056;-59
2022/11/17 23:38:54;;;;;;;10.88;8.82;;;;;;;;;;10268747;28;20083;-60
2022/11/17 23:43:53;;;;;;;9.32;8.32;;;;;;;;;;10269054;28;20049;-60
2022/11/17 23:48:51;;;;;;;9.98;8.27;;;;;;;;;;10268944;28;20045;-60
2022/11/17 23:53:51;;;;;;;9.27;8.27;;;;;;;;;;10270074;28;20049;-61
2022/11/17 23:58:49;;;;;;;11.98;9.65;;;;;;;;;;10270013;28;20081;-59
